Time;durP1;ratioP1;P1;durP2;ratioP2;P2;SDS_P1;SDS_P2;PMS_P1;PMS_P2;Temp;Humidity;BMP_temperature;BMP_pressure;BME280_temperature;BME280_humidity;BME280_pressure;Samples;Min_cycle;Max_cycle;Signal;HPM_P1;HPM_P2
2022/09/02 00:01:12;;;;;;;;;;;16.10;99.90;;;;;;5061830;28;20355;-87
2022/09/02 00:03:39;;;;;;;;;;;16.00;99.90;;;;;;5064167;28;19928;-87
2022/09/02 00:06:06;;;;;;;;;;;16.00;99.90;;;;;;5064222;28;20128;-87
2022/09/02 00:08:34;;;;;;;;;;;16.00;99.90;;;;;;5064184;28;19947;-88
2022/09/02 00:11:02;;;;;;;;;;;15.90;99.90;;;;;;5069630;28;20120;-87
2022/09/02 00:13:29;;;;;;;;;;;15.90;99.90;;;;;;5063736;28;19995;-88
2022/09/02 00:15:56;;;;;;;;;;;15.80;99.90;;;;;;5064110;28;20097;-87
2022/09/02 00:18:23;;;;;;;;;;;15.80;99.90;;;;;;5063858;28;19928;-87
2022/09/02 00:20:50;;;;;;;;;;;15.80;99.90;;;;;;5064144;28;19921;-87
2022/09/02 00:23:17;;;;;;;;;;;15.70;99.90;;;;;;5063407;28;19920;-87
2022/09/02 00:25:45;;;;;;;;;;;15.70;99.90;;;;;;5064056;28;19951;-87
2022/09/02 00:28:12;;;;;;;;;;;15.60;99.90;;;;;;5064076;28;19992;-87
2022/09/02 00:30:40;;;;;;;;;;;15.60;99.90;;;;;;5064002;28;20171;-87
2022/09/02 00:33:07;;;;;;;;;;;15.60;99.90;;;;;;5062905;28;19925;-87
2022/09/02 00:35:34;;;;;;;;;;;15.50;99.90;;;;;;5063652;28;20223;-87
2022/09/02 00:38:01;;;;;;;;;;;15.50;99.90;;;;;;5063964;28;19921;-87
2022/09/02 00:40:28;;;;;;;;;;;15.50;99.90;;;;;;5063898;28;20232;-87
2022/09/02 00:42:57;;;;;;;;;;;15.40;99.90;;;;;;5062857;28;19941;-87
2022/09/02 00:45:23;;;;;;;;;;;15.30;99.90;;;;;;5063250;28;19921;-87
2022/09/02 00:47:50;;;;;;;;;;;15.30;99.90;;;;;;5063352;28;20178;-87
2022/09/02 00:50:19;;;;;;;;;;;15.30;99.90;;;;;;5063706;28;19921;-87
2022/09/02 00:52:47;;;;;;;;;;;15.20;99.90;;;;;;5063102;28;19920;-87
2022/09/02 00:55:15;;;;;;;;;;;15.10;99.90;;;;;;5063673;28;19920;-88
2022/09/02 00:57:42;;;;;;;;;;;15.00;99.90;;;;;;5082835;22;19921;-67
2022/09/02 01:00:13;;;;;;;;;;;15.00;99.90;;;;;;5076489;28;19985;-67
2022/09/02 01:02:41;;;;;;;;;;;14.90;99.90;;;;;;5063073;28;19991;-67
2022/09/02 01:05:09;;;;;;;;;;;14.80;99.90;;;;;;5073345;28;20003;-67
2022/09/02 01:07:37;;;;;;;;;;;14.80;99.90;;;;;;5083352;28;19952;-67
2022/09/02 01:10:05;;;;;;;;;;;14.70;99.90;;;;;;5083233;28;20414;-67
2022/09/02 01:12:32;;;;;;;;;;;14.70;99.90;;;;;;5082736;28;19924;-67
2022/09/02 01:14:59;;;;;;;;;;;14.60;99.90;;;;;;5082524;28;20261;-67
2022/09/02 01:17:27;;;;;;;;;;;14.60;99.90;;;;;;5066416;28;19979;-67
2022/09/02 01:19:56;;;;;;;;;;;14.60;99.90;;;;;;5063133;28;19921;-67
2022/09/02 01:22:25;;;;;;;;;;;14.50;99.90;;;;;;5063006;28;20412;-68
2022/09/02 01:24:52;;;;;;;;;;;14.40;99.90;;;;;;5062620;28;19983;-68
2022/09/02 01:27:21;;;;;;;;;;;14.40;99.90;;;;;;5062852;28;19984;-67
2022/09/02 01:29:50;;;;;;;;;;;14.30;99.90;;;;;;5060360;28;19988;-67
2022/09/02 01:32:23;;;;;;;;;;;14.30;99.90;;;;;;5062031;28;19920;-67
2022/09/02 01:34:50;;;;;;;;;;;14.30;99.90;;;;;;5066246;28;19944;-67
2022/09/02 01:37:17;;;;;;;;;;;14.30;99.90;;;;;;5071449;28;19992;-67
2022/09/02 01:39:45;;;;;;;;;;;14.20;99.90;;;;;;5076990;28;19967;-67
2022/09/02 01:42:12;;;;;;;;;;;14.20;99.90;;;;;;5082951;28;19920;-67
2022/09/02 01:44:42;;;;;;;;;;;14.10;99.90;;;;;;5082185;28;20237;-67
2022/09/02 01:47:09;;;;;;;;;;;14.10;99.90;;;;;;5082755;28;19920;-67
2022/09/02 01:49:36;;;;;;;;;;;14.10;99.90;;;;;;5073819;28;19956;-67
2022/09/02 01:52:03;;;;;;;;;;;14.00;99.90;;;;;;5062776;28;19964;-67
2022/09/02 01:54:30;;;;;;;;;;;14.00;99.90;;;;;;5062286;28;20176;-67
2022/09/02 01:56:58;;;;;;;;;;;13.90;99.90;;;;;;5066182;28;20035;-67
2022/09/02 01:59:25;;;;;;;;;;;13.80;99.90;;;;;;5066289;28;19973;-67
2022/09/02 02:01:51;;;;;;;;;;;13.70;99.90;;;;;;5066055;28;19956;-67
2022/09/02 02:04:18;;;;;;;;;;;13.70;99.90;;;;;;5075341;28;19952;-67
2022/09/02 02:06:46;;;;;;;;;;;13.60;99.90;;;;;;5077194;28;20161;-67
2022/09/02 02:09:13;;;;;;;;;;;13.60;99.90;;;;;;5066195;28;19956;-67
2022/09/02 02:11:40;;;;;;;;;;;13.60;99.90;;;;;;5071982;28;19979;-67
2022/09/02 02:14:09;;;;;;;;;;;13.50;99.90;;;;;;5078622;28;19921;-67
2022/09/02 02:16:35;;;;;;;;;;;13.40;99.90;;;;;;5065656;28;19963;-68
2022/09/02 02:19:03;;;;;;;;;;;13.30;99.90;;;;;;5065905;28;19995;-67
2022/09/02 02:21:30;;;;;;;;;;;13.30;99.90;;;;;;5066089;28;19927;-67
2022/09/02 02:23:59;;;;;;;;;;;13.20;99.90;;;;;;5065171;28;20233;-67
2022/09/02 02:26:25;;;;;;;;;;;13.10;99.90;;;;;;5068469;28;19921;-67
2022/09/02 02:28:53;;;;;;;;;;;13.10;99.90;;;;;;5066067;28;19921;-67
2022/09/02 02:31:21;;;;;;;;;;;13.10;99.90;;;;;;5065516;28;20115;-67
2022/09/02 02:33:47;;;;;;;;;;;13.10;99.90;;;;;;5065110;28;19921;-67
2022/09/02 02:36:14;;;;;;;;;;;13.00;99.90;;;;;;5065470;28;19967;-67
2022/09/02 02:38:42;;;;;;;;;;;12.90;99.90;;;;;;5065919;28;19921;-67
2022/09/02 02:41:09;;;;;;;;;;;12.90;99.90;;;;;;5065661;28;19921;-67
2022/09/02 02:43:35;;;;;;;;;;;12.90;99.90;;;;;;5064587;28;19920;-68
2022/09/02 02:48:32;;;;;;;;;;;12.80;99.90;;;;;;5023954;28;19944;-70
2022/09/02 02:50:59;;;;;;;;;;;12.80;99.90;;;;;;5025206;28;19949;-70
2022/09/02 02:53:28;;;;;;;;;;;12.70;99.90;;;;;;5024874;28;19968;-69
2022/09/02 02:55:55;;;;;;;;;;;12.70;99.90;;;;;;5025541;28;20112;-69
2022/09/02 02:58:21;;;;;;;;;;;12.70;99.90;;;;;;5025262;28;20180;-69
2022/09/02 03:00:48;;;;;;;;;;;12.70;99.90;;;;;;5024951;28;20181;-69
2022/09/02 03:03:18;;;;;;;;;;;12.60;99.90;;;;;;5024425;28;19996;-69
2022/09/02 03:05:46;;;;;;;;;;;12.60;99.90;;;;;;5024626;28;19989;-69
2022/09/02 03:08:13;;;;;;;;;;;12.60;99.90;;;;;;5024268;28;19922;-69
2022/09/02 03:10:41;;;;;;;;;;;12.60;99.90;;;;;;5025006;28;19928;-69
2022/09/02 03:13:08;;;;;;;;;;;12.50;99.90;;;;;;5024126;28;19928;-69
2022/09/02 03:15:35;;;;;;;;;;;12.50;99.90;;;;;;5024917;28;19922;-69
2022/09/02 03:18:02;;;;;;;;;;;12.50;99.90;;;;;;5024757;28;19953;-69
2022/09/02 03:20:29;;;;;;;;;;;12.40;99.90;;;;;;5024412;28;19967;-69
2022/09/02 03:22:58;;;;;;;;;;;12.40;99.90;;;;;;5024251;28;19921;-69
2022/09/02 03:25:26;;;;;;;;;;;12.30;99.90;;;;;;5024655;28;20225;-69
2022/09/02 03:27:52;;;;;;;;;;;12.20;99.90;;;;;;5024615;28;19959;-69
2022/09/02 03:30:20;;;;;;;;;;;12.20;99.90;;;;;;5024574;28;19949;-69
2022/09/02 03:32:47;;;;;;;;;;;12.10;99.90;;;;;;5022421;28;19953;-69
2022/09/02 03:35:16;;;;;;;;;;;12.00;99.90;;;;;;5019034;28;19921;-69
2022/09/02 03:37:43;;;;;;;;;;;12.00;99.90;;;;;;5024603;28;20125;-69
2022/09/02 03:40:13;;;;;;;;;;;11.90;99.90;;;;;;5024285;28;19936;-69
2022/09/02 03:42:39;;;;;;;;;;;11.90;99.90;;;;;;5023947;28;19960;-69
2022/09/02 03:45:07;;;;;;;;;;;11.90;99.90;;;;;;5024120;28;19928;-69
2022/09/02 03:47:34;;;;;;;;;;;11.80;99.90;;;;;;5021516;28;19944;-69
2022/09/02 03:50:02;;;;;;;;;;;11.80;99.90;;;;;;5024242;28;19960;-69
2022/09/02 03:52:29;;;;;;;;;;;11.80;99.90;;;;;;5024343;28;19928;-69
2022/09/02 03:54:56;;;;;;;;;;;11.80;99.90;;;;;;5021577;28;19956;-69
2022/09/02 03:57:25;;;;;;;;;;;11.80;99.90;;;;;;5024385;28;19968;-69
2022/09/02 03:59:53;;;;;;;;;;;11.70;99.90;;;;;;5024083;28;19928;-69
2022/09/02 04:02:19;;;;;;;;;;;11.70;99.90;;;;;;5020391;28;19921;-69
2022/09/02 04:04:46;;;;;;;;;;;11.70;99.90;;;;;;5023478;28;19949;-69
2022/09/02 04:07:13;;;;;;;;;;;11.70;99.90;;;;;;5023731;28;19988;-69
2022/09/02 04:09:39;;;;;;;;;;;11.60;99.90;;;;;;5024056;28;20112;-69
2022/09/02 04:12:07;;;;;;;;;;;11.70;99.90;;;;;;5024083;28;19945;-70
2022/09/02 04:14:35;;;;;;;;;;;11.60;99.90;;;;;;5023145;28;19961;-69
2022/09/02 04:23:07;;;;;;;;;;;11.60;99.90;;;;;;5014884;28;19915;-71
2022/09/02 04:25:38;;;;;;;;;;;11.50;99.90;;;;;;5023660;28;20205;-68
2022/09/02 04:28:04;;;;;;;;;;;11.50;99.90;;;;;;5023789;28;20201;-71
2022/09/02 04:30:32;;;;;;;;;;;11.50;99.90;;;;;;5022309;28;19990;-71
2022/09/02 04:32:59;;;;;;;;;;;11.40;99.90;;;;;;5023199;28;19988;-71
2022/09/02 04:35:25;;;;;;;;;;;11.50;99.90;;;;;;5023387;28;19936;-69
2022/09/02 04:37:52;;;;;;;;;;;11.40;99.90;;;;;;5023734;28;19960;-68
2022/09/02 04:40:19;;;;;;;;;;;11.40;99.90;;;;;;5023453;28;20267;-69
2022/09/02 04:42:46;;;;;;;;;;;11.40;99.90;;;;;;5023019;28;19963;-69
2022/09/02 04:45:13;;;;;;;;;;;11.40;99.90;;;;;;5022800;28;19921;-69
2022/09/02 04:47:41;;;;;;;;;;;11.30;99.90;;;;;;5020993;28;19928;-69
2022/09/02 04:50:08;;;;;;;;;;;11.30;99.90;;;;;;5023009;28;19989;-69
2022/09/02 04:52:34;;;;;;;;;;;11.30;99.90;;;;;;5018315;28;19953;-69
2022/09/02 04:55:01;;;;;;;;;;;11.30;99.90;;;;;;5003327;28;20231;-69
2022/09/02 04:57:27;;;;;;;;;;;11.30;99.90;;;;;;5011806;28;20171;-68
2022/09/02 04:59:54;;;;;;;;;;;11.30;99.90;;;;;;5022617;28;19921;-69
2022/09/02 05:02:21;;;;;;;;;;;11.20;99.90;;;;;;5023642;28;19929;-68
2022/09/02 05:04:51;;;;;;;;;;;11.20;99.90;;;;;;5023256;28;19960;-68
2022/09/02 05:07:17;;;;;;;;;;;11.20;99.90;;;;;;5023523;28;19921;-69
2022/09/02 05:09:44;;;;;;;;;;;11.10;99.90;;;;;;5022013;28;19976;-68
2022/09/02 05:12:10;;;;;;;;;;;11.10;99.90;;;;;;5020456;28;19985;-68
2022/09/02 05:14:37;;;;;;;;;;;11.10;99.90;;;;;;5011344;28;19981;-68
2022/09/02 05:17:04;;;;;;;;;;;11.20;99.90;;;;;;5015834;28;19921;-68
2022/09/02 05:19:31;;;;;;;;;;;11.20;99.90;;;;;;5023693;28;19988;-69
2022/09/02 05:22:00;;;;;;;;;;;11.10;99.90;;;;;;5023340;28;20235;-69
2022/09/02 05:24:27;;;;;;;;;;;11.10;99.90;;;;;;5018350;28;19960;-69
2022/09/02 05:26:54;;;;;;;;;;;11.10;99.90;;;;;;5018930;28;19929;-68
2022/09/02 05:29:22;;;;;;;;;;;11.10;99.90;;;;;;5017134;28;19949;-69
2022/09/02 05:31:49;;;;;;;;;;;11.20;99.90;;;;;;5027593;28;19944;-69
2022/09/02 05:34:16;;;;;;;;;;;11.20;99.90;;;;;;5019792;28;19989;-69
2022/09/02 05:36:43;;;;;;;;;;;11.20;99.90;;;;;;5026989;28;20205;-70
2022/09/02 05:39:11;;;;;;;;;;;11.20;99.90;;;;;;5027354;28;20018;-69
2022/09/02 05:41:38;;;;;;;;;;;11.30;99.90;;;;;;5027196;28;19952;-69
2022/09/02 05:44:05;;;;;;;;;;;11.30;99.90;;;;;;5026507;28;19989;-69
2022/09/02 05:46:32;;;;;;;;;;;11.40;99.90;;;;;;5026737;28;19989;-69
2022/09/02 05:49:08;;;;;;;;;;;11.40;99.90;;;;;;5024215;28;19921;-69
2022/09/02 05:51:40;;;;;;;;;;;11.40;99.90;;;;;;5025950;28;20124;-70
2022/09/02 05:54:07;;;;;;;;;;;11.40;99.90;;;;;;5025685;28;19921;-70
2022/09/02 05:56:37;;;;;;;;;;;11.50;99.90;;;;;;5026162;28;19997;-70
2022/09/02 05:59:05;;;;;;;;;;;11.50;99.90;;;;;;5026324;28;20117;-69
2022/09/02 06:01:32;;;;;;;;;;;11.60;99.90;;;;;;5025901;28;19925;-70
2022/09/02 06:04:01;;;;;;;;;;;11.70;99.90;;;;;;5025610;28;20175;-69
2022/09/02 06:06:28;;;;;;;;;;;11.80;99.90;;;;;;5025890;28;19929;-69
2022/09/02 06:08:55;;;;;;;;;;;11.90;99.90;;;;;;5026176;28;19985;-69
2022/09/02 06:11:21;;;;;;;;;;;11.90;99.90;;;;;;5026158;28;20185;-69
2022/09/02 06:13:50;;;;;;;;;;;12.00;99.90;;;;;;5025603;28;20000;-69
2022/09/02 06:16:18;;;;;;;;;;;12.10;99.90;;;;;;5026070;28;19921;-69
2022/09/02 06:18:45;;;;;;;;;;;12.20;99.90;;;;;;5025908;28;20172;-69
2022/09/02 06:21:12;;;;;;;;;;;12.20;99.90;;;;;;5025648;28;19921;-69
2022/09/02 06:23:40;;;;;;;;;;;12.30;99.90;;;;;;5025931;28;19921;-69
2022/09/02 06:26:07;;;;;;;;;;;12.30;99.90;;;;;;5026440;28;19941;-69
2022/09/02 06:28:34;;;;;;;;;;;12.50;99.90;;;;;;5025814;28;20235;-70
2022/09/02 06:31:07;;;;;;;;;;;12.60;99.90;;;;;;5025996;28;19921;-70
2022/09/02 06:33:34;;;;;;;;;;;12.70;99.90;;;;;;5025337;28;20094;-68
2022/09/02 06:36:00;;;;;;;;;;;12.90;99.90;;;;;;5025803;28;19984;-70
2022/09/02 06:38:27;;;;;;;;;;;13.00;99.90;;;;;;5026228;28;20112;-69
2022/09/02 06:40:54;;;;;;;;;;;13.10;99.90;;;;;;5025416;28;19921;-69
2022/09/02 06:43:21;;;;;;;;;;;13.10;99.90;;;;;;5024966;28;20157;-70
2022/09/02 06:45:48;;;;;;;;;;;13.20;99.90;;;;;;5025915;28;19980;-69
2022/09/02 06:48:17;;;;;;;;;;;13.30;99.90;;;;;;5023253;28;19975;-69
2022/09/02 06:50:46;;;;;;;;;;;13.40;99.90;;;;;;5025652;28;19989;-70
2022/09/02 06:53:13;;;;;;;;;;;13.50;99.90;;;;;;5025192;28;19921;-69
2022/09/02 06:55:42;;;;;;;;;;;13.60;99.90;;;;;;5025522;28;19929;-69
2022/09/02 06:58:08;;;;;;;;;;;13.70;99.90;;;;;;5025712;28;20171;-69
2022/09/02 07:00:36;;;;;;;;;;;13.80;99.90;;;;;;5025550;28;20231;-68
2022/09/02 07:05:57;;;;;;;;;;;13.80;99.90;;;;;;5025316;28;19928;-71
2022/09/02 07:08:24;;;;;;;;;;;13.90;99.90;;;;;;5025711;28;19921;-68
2022/09/02 07:10:51;;;;;;;;;;;14.10;99.90;;;;;;5025633;28;19988;-69
2022/09/02 07:13:17;;;;;;;;;;;14.10;99.90;;;;;;5025000;28;19928;-69
2022/09/02 07:15:44;;;;;;;;;;;14.20;99.90;;;;;;5025037;28;20056;-68
2022/09/02 07:18:11;;;;;;;;;;;14.30;99.90;;;;;;5025037;28;19956;-69
2022/09/02 07:20:37;;;;;;;;;;;14.30;99.90;;;;;;5025092;28;19928;-69
2022/09/02 07:23:05;;;;;;;;;;;14.40;99.90;;;;;;5024569;28;19937;-69
2022/09/02 07:25:32;;;;;;;;;;;14.50;99.90;;;;;;5025100;28;19984;-69
2022/09/02 07:27:59;;;;;;;;;;;14.60;99.90;;;;;;5024355;28;19935;-69
2022/09/02 07:30:26;;;;;;;;;;;14.70;99.90;;;;;;5024851;28;19930;-69
2022/09/02 07:32:52;;;;;;;;;;;14.80;99.90;;;;;;5024540;28;19957;-69
2022/09/02 07:35:19;;;;;;;;;;;14.90;99.90;;;;;;5024872;28;20000;-69
2022/09/02 07:37:45;;;;;;;;;;;14.90;99.90;;;;;;5024821;28;19929;-69
2022/09/02 07:40:14;;;;;;;;;;;15.00;99.90;;;;;;5025202;28;19984;-69
2022/09/02 07:42:41;;;;;;;;;;;15.00;99.90;;;;;;5024658;28;19953;-69
2022/09/02 07:45:08;;;;;;;;;;;15.20;99.90;;;;;;5024280;28;19948;-70
2022/09/02 07:50:46;;;;;;;;;;;15.30;99.90;;;;;;5005207;28;19917;-70
2022/09/02 07:53:14;;;;;;;;;;;15.40;99.90;;;;;;5004487;28;20133;-70
2022/09/02 07:55:42;;;;;;;;;;;15.50;99.90;;;;;;5005216;28;20153;-70
2022/09/02 07:58:10;;;;;;;;;;;15.60;99.90;;;;;;5005209;28;19985;-71
2022/09/02 08:00:37;;;;;;;;;;;15.60;99.90;;;;;;5023498;28;20241;-71
2022/09/02 08:03:04;;;;;;;;;;;15.70;99.90;;;;;;5032882;28;20393;-72
2022/09/02 08:05:31;;;;;;;;;;;15.70;99.90;;;;;;5024408;28;19922;-72
2022/09/02 08:07:59;;;;;;;;;;;15.80;99.90;;;;;;5023906;28;19992;-71
2022/09/02 08:10:28;;;;;;;;;;;15.90;99.90;;;;;;5023997;28;19925;-71
2022/09/02 08:12:56;;;;;;;;;;;16.10;99.90;;;;;;5023502;28;19956;-71
2022/09/02 08:15:23;;;;;;;;;;;16.20;99.90;;;;;;5023649;28;19976;-71
2022/09/02 08:17:50;;;;;;;;;;;16.40;99.90;;;;;;5023819;28;20174;-71
2022/09/02 08:20:17;;;;;;;;;;;16.40;99.90;;;;;;5023910;28;19964;-72
2022/09/02 08:22:44;;;;;;;;;;;16.50;99.90;;;;;;5023390;28;19984;-71
2022/09/02 08:25:11;;;;;;;;;;;16.60;99.90;;;;;;5023784;28;19989;-71
2022/09/02 08:27:38;;;;;;;;;;;16.60;99.90;;;;;;5023850;28;20170;-71
2022/09/02 08:30:08;;;;;;;;;;;16.70;99.90;;;;;;5023559;28;20001;-71
2022/09/02 08:32:35;;;;;;;;;;;16.80;99.90;;;;;;5023639;28;19930;-71
2022/09/02 08:35:03;;;;;;;;;;;16.90;99.90;;;;;;5022526;28;19993;-71
2022/09/02 08:37:30;;;;;;;;;;;16.90;99.90;;;;;;5010946;28;19929;-71
2022/09/02 08:39:57;;;;;;;;;;;17.00;99.90;;;;;;5012637;28;19961;-72
2022/09/02 08:42:26;;;;;;;;;;;17.10;99.90;;;;;;5023342;28;19921;-71
2022/09/02 08:44:55;;;;;;;;;;;17.20;99.90;;;;;;5023019;28;20004;-71
2022/09/02 08:47:25;;;;;;;;;;;17.20;99.90;;;;;;5039640;23;19929;-71
2022/09/02 08:50:05;;;;;;;;;;;17.30;99.90;;;;;;5058914;28;19989;-73
2022/09/02 08:52:33;;;;;;;;;;;17.40;99.90;;;;;;5063875;28;20004;-71
2022/09/02 08:55:01;;;;;;;;;;;17.50;99.90;;;;;;5063434;28;19935;-72
2022/09/02 08:57:28;;;;;;;;;;;17.60;99.90;;;;;;5063521;28;20250;-71
2022/09/02 09:00:01;;;;;;;;;;;17.70;99.90;;;;;;5062255;28;20174;-72
2022/09/02 09:02:41;;;;;;;;;;;17.80;99.90;;;;;;5057871;28;20115;-72
2022/09/02 09:05:16;;;;;;;;;;;17.80;99.90;;;;;;5064803;28;19979;-71
2022/09/02 09:07:51;;;;;;;;;;;17.90;99.90;;;;;;5068005;28;19952;-71
2022/09/02 09:10:21;;;;;;;;;;;18.00;99.90;;;;;;5067698;28;19921;-71
2022/09/02 09:15:51;;;;;;;;;;;18.10;99.90;;;;;;5079902;28;19927;-70
2022/09/02 09:18:20;;;;;;;;;;;18.30;99.90;;;;;;5082293;28;20262;-70
2022/09/02 09:20:47;;;;;;;;;;;18.30;99.90;;;;;;5059131;28;19964;-73
2022/09/02 09:23:27;;;;;;;;;;;18.40;99.90;;;;;;5067046;28;19921;-72
2022/09/02 09:25:56;;;;;;;;;;;18.50;99.90;;;;;;5066976;28;20000;-73
2022/09/02 09:28:23;;;;;;;;;;;18.50;99.90;;;;;;5067108;28;19967;-72
2022/09/02 09:30:50;;;;;;;;;;;18.60;99.90;;;;;;5067284;28;19956;-71
2022/09/02 09:33:17;;;;;;;;;;;18.70;99.90;;;;;;5066549;28;19987;-70
2022/09/02 09:35:49;;;;;;;;;;;18.70;99.90;;;;;;5067132;28;20007;-69
2022/09/02 09:38:16;;;;;;;;;;;18.70;99.90;;;;;;5066941;28;19921;-68
2022/09/02 09:40:43;;;;;;;;;;;18.80;99.90;;;;;;5067268;28;19928;-69
2022/09/02 09:43:13;;;;;;;;;;;18.90;99.90;;;;;;5066671;28;19927;-69
2022/09/02 09:45:41;;;;;;;;;;;19.00;99.90;;;;;;5066980;28;19921;-69
2022/09/02 09:48:13;;;;;;;;;;;19.10;99.90;;;;;;5063555;28;19927;-69
2022/09/02 09:50:40;;;;;;;;;;;19.10;99.90;;;;;;5067092;28;19921;-69
2022/09/02 09:53:19;;;;;;;;;;;19.20;99.90;;;;;;5066183;28;20216;-69
2022/09/02 09:55:53;;;;;;;;;;;19.30;99.90;;;;;;5053590;28;20112;-69
2022/09/02 09:58:20;;;;;;;;;;;19.40;99.90;;;;;;5059359;28;20489;-72
2022/09/02 10:00:47;;;;;;;;;;;19.50;99.90;;;;;;5066602;28;19984;-69
2022/09/02 10:03:21;;;;;;;;;;;19.60;99.90;;;;;;5063673;28;19980;-70
2022/09/02 10:05:49;;;;;;;;;;;19.70;99.90;;;;;;5066779;28;20234;-72
2022/09/02 10:08:21;;;;;;;;;;;19.80;99.90;;;;;;5066686;28;20155;-69
2022/09/02 10:10:55;;;;;;;;;;;19.90;99.90;;;;;;5066541;28;19927;-71
2022/09/02 10:13:24;;;;;;;;;;;20.00;99.90;;;;;;5065672;28;19929;-70
2022/09/02 10:16:00;;;;;;;;;;;20.10;99.90;;;;;;5066172;28;19980;-70
2022/09/02 10:18:31;;;;;;;;;;;20.10;99.90;;;;;;5066553;28;19987;-70
2022/09/02 10:21:01;;;;;;;;;;;20.20;99.90;;;;;;5066238;28;19983;-69
2022/09/02 10:23:44;;;;;;;;;;;20.20;99.90;;;;;;5065606;28;20072;-70
2022/09/02 10:26:15;;;;;;;;;;;20.30;99.90;;;;;;5066318;28;19920;-71
2022/09/02 10:29:01;;;;;;;;;;;20.50;99.90;;;;;;5065967;28;19992;-71
2022/09/02 10:31:31;;;;;;;;;;;20.50;99.90;;;;;;5066190;28;19983;-70
2022/09/02 10:34:04;;;;;;;;;;;20.70;99.90;;;;;;5065607;28;19985;-70
2022/09/02 10:36:35;;;;;;;;;;;20.80;99.90;;;;;;5066227;28;19992;-70
2022/09/02 10:39:20;;;;;;;;;;;21.00;99.90;;;;;;5063074;28;19988;-70
2022/09/02 10:41:47;;;;;;;;;;;21.10;99.90;;;;;;5065842;28;19983;-71
2022/09/02 10:44:29;;;;;;;;;;;21.20;99.90;;;;;;5065444;28;19921;-70
2022/09/02 10:47:00;;;;;;;;;;;21.40;99.90;;;;;;5065823;28;19943;-70
2022/09/02 10:49:31;;;;;;;;;;;21.50;99.90;;;;;;5065746;28;19921;-70
2022/09/02 10:52:04;;;;;;;;;;;21.60;99.90;;;;;;5065962;28;19921;-70
2022/09/02 10:54:38;;;;;;;;;;;21.50;99.90;;;;;;5064960;28;19952;-70
2022/09/02 10:57:09;;;;;;;;;;;21.40;99.90;;;;;;5065609;28;20283;-70
2022/09/02 10:59:39;;;;;;;;;;;21.40;99.90;;;;;;5065530;28;19992;-71
2022/09/02 11:02:10;;;;;;;;;;;21.50;99.90;;;;;;5066072;28;19988;-72
2022/09/02 11:04:39;;;;;;;;;;;21.60;99.90;;;;;;5065077;28;19984;-71
2022/09/02 11:07:09;;;;;;;;;;;21.80;99.90;;;;;;5065505;28;19956;-71
2022/09/02 11:09:47;;;;;;;;;;;21.80;99.90;;;;;;5061884;28;19987;-71
2022/09/02 11:12:15;;;;;;;;;;;21.90;99.90;;;;;;5058859;28;20120;-71
2022/09/02 11:14:48;;;;;;;;;;;21.90;99.10;;;;;;5044795;28;19968;-71
2022/09/02 11:17:19;;;;;;;;;;;21.90;99.20;;;;;;5045432;28;19993;-71
2022/09/02 11:19:50;;;;;;;;;;;22.00;99.00;;;;;;5042687;28;19937;-71
2022/09/02 11:22:19;;;;;;;;;;;22.00;98.80;;;;;;5052338;28;19988;-71
2022/09/02 11:24:51;;;;;;;;;;;22.00;98.30;;;;;;5064431;28;19995;-71
2022/09/02 11:27:21;;;;;;;;;;;22.10;99.30;;;;;;5064301;28;20203;-71
2022/09/02 11:29:53;;;;;;;;;;;22.30;98.90;;;;;;5065027;28;19988;-72
2022/09/02 11:32:26;;;;;;;;;;;22.50;98.60;;;;;;5065093;28;19983;-71
2022/09/02 11:34:54;;;;;;;;;;;22.70;98.20;;;;;;5064015;28;20116;-71
2022/09/02 11:37:28;;;;;;;;;;;22.90;96.70;;;;;;5064819;28;19971;-71
2022/09/02 11:39:58;;;;;;;;;;;23.10;97.20;;;;;;5064884;28;19920;-70
2022/09/02 11:42:41;;;;;;;;;;;23.30;96.50;;;;;;5064631;28;19987;-71
2022/09/02 11:45:17;;;;;;;;;;;23.50;96.10;;;;;;5061299;28;20116;-72
2022/09/02 11:48:05;;;;;;;;;;;23.70;95.20;;;;;;5062082;28;19921;-70
2022/09/02 11:50:46;;;;;;;;;;;23.80;95.10;;;;;;5064733;28;19921;-69
2022/09/02 11:53:18;;;;;;;;;;;24.00;95.00;;;;;;5063599;28;20228;-71
2022/09/02 11:55:50;;;;;;;;;;;24.00;93.40;;;;;;5061919;28;19968;-70
2022/09/02 11:58:32;;;;;;;;;;;24.00;93.20;;;;;;5058854;28;19921;-70
2022/09/02 12:01:06;;;;;;;;;;;23.80;93.30;;;;;;5041826;28;19984;-70
2022/09/02 12:03:34;;;;;;;;;;;23.80;93.50;;;;;;5043432;28;19921;-70
2022/09/02 12:06:05;;;;;;;;;;;23.70;93.00;;;;;;5044415;28;19963;-70
2022/09/02 12:08:52;;;;;;;;;;;23.70;93.20;;;;;;5054120;28;20089;-69
2022/09/02 12:11:49;;;;;;;;;;;23.60;93.00;;;;;;5064075;28;19967;-70
2022/09/02 12:14:34;;;;;;;;;;;23.60;93.20;;;;;;5002059;28;19922;-70
2022/09/02 12:17:03;;;;;;;;;;;23.70;93.70;;;;;;5054565;28;20103;-70
2022/09/02 12:19:40;;;;;;;;;;;24.00;93.60;;;;;;5044233;28;19971;-70
2022/09/02 12:22:27;;;;;;;;;;;24.30;92.00;;;;;;5044058;28;19921;-68
2022/09/02 12:24:54;;;;;;;;;;;24.30;92.50;;;;;;5061967;28;19927;-70
2022/09/02 12:27:31;;;;;;;;;;;24.20;91.70;;;;;;5060450;28;20258;-69
2022/09/02 12:29:58;;;;;;;;;;;24.00;91.80;;;;;;5064029;28;19988;-68
2022/09/02 12:32:43;;;;;;;;;;;23.80;92.80;;;;;;5063837;28;19921;-69
2022/09/02 12:35:12;;;;;;;;;;;23.70;92.50;;;;;;5063775;28;19921;-70
2022/09/02 12:37:52;;;;;;;;;;;23.70;92.50;;;;;;5063876;28;20097;-69
2022/09/02 12:40:29;;;;;;;;;;;23.80;92.60;;;;;;5063949;28;19921;-70
2022/09/02 12:42:58;;;;;;;;;;;23.90;92.70;;;;;;5062888;28;19988;-69
2022/09/02 12:45:27;;;;;;;;;;;24.20;92.80;;;;;;5063491;28;19952;-69
2022/09/02 12:47:58;;;;;;;;;;;24.30;91.80;;;;;;5063518;28;19921;-69
2022/09/02 12:50:28;;;;;;;;;;;24.50;94.00;;;;;;5063725;28;19921;-69
2022/09/02 12:53:11;;;;;;;;;;;24.70;92.20;;;;;;5062694;28;19921;-70
2022/09/02 12:55:38;;;;;;;;;;;25.00;92.00;;;;;;5063479;28;19967;-69
2022/09/02 12:58:14;;;;;;;;;;;25.00;90.70;;;;;;5058525;28;20175;-69
2022/09/02 13:00:52;;;;;;;;;;;24.90;90.40;;;;;;5063669;28;19920;-69
2022/09/02 13:03:26;;;;;;;;;;;25.00;91.60;;;;;;5062415;28;19927;-69
2022/09/02 13:05:58;;;;;;;;;;;25.20;90.80;;;;;;5062536;28;20200;-69
2022/09/02 13:08:52;;;;;;;;;;;25.10;90.10;;;;;;5063058;28;20365;-69
2022/09/02 13:11:30;;;;;;;;;;;25.00;90.60;;;;;;5016497;28;19920;-69
2022/09/02 13:14:14;;;;;;;;;;;25.00;90.50;;;;;;5048515;28;20232;-70
2022/09/02 13:16:44;;;;;;;;;;;25.00;90.30;;;;;;5043113;28;20130;-69
2022/09/02 13:19:23;;;;;;;;;;;24.90;90.60;;;;;;5054334;28;20064;-70
2022/09/02 13:22:13;;;;;;;;;;;24.80;90.40;;;;;;5060494;28;20123;-69
2022/09/02 13:24:58;;;;;;;;;;;24.90;91.00;;;;;;5027079;28;19960;-72
2022/09/02 13:27:34;;;;;;;;;;;25.20;91.60;;;;;;5060587;28;19989;-69
2022/09/02 13:30:16;;;;;;;;;;;25.50;90.70;;;;;;5063321;28;19984;-70
2022/09/02 13:32:43;;;;;;;;;;;25.80;90.40;;;;;;5060021;28;19984;-72
2022/09/02 13:35:16;;;;;;;;;;;26.10;90.00;;;;;;5052419;28;19925;-70
2022/09/02 13:37:44;;;;;;;;;;;26.30;90.70;;;;;;5054653;28;19980;-70
2022/09/02 13:40:18;;;;;;;;;;;26.40;87.70;;;;;;5051140;28;20260;-69
2022/09/02 13:42:49;;;;;;;;;;;26.50;89.00;;;;;;5050500;28;19921;-72
2022/09/02 13:45:17;;;;;;;;;;;26.40;86.80;;;;;;5055884;28;19920;-69
2022/09/02 13:47:44;;;;;;;;;;;26.40;89.40;;;;;;5062875;28;19921;-69
2022/09/02 13:50:15;;;;;;;;;;;26.50;87.50;;;;;;5042035;28;20238;-70
2022/09/02 13:52:42;;;;;;;;;;;26.50;88.40;;;;;;5065100;28;19984;-69
2022/09/02 13:55:10;;;;;;;;;;;26.80;87.20;;;;;;5066495;28;19927;-71
2022/09/02 13:57:37;;;;;;;;;;;26.90;87.40;;;;;;5052069;28;19921;-70
2022/09/02 14:00:06;;;;;;;;;;;27.00;85.00;;;;;;5058771;28;19959;-70
2022/09/02 14:02:34;;;;;;;;;;;27.20;85.20;;;;;;5063284;28;20208;-69
2022/09/02 14:05:02;;;;;;;;;;;27.30;85.60;;;;;;5065738;28;20311;-70
2022/09/02 14:07:31;;;;;;;;;;;27.40;84.70;;;;;;5059355;28;19984;-70
2022/09/02 14:10:00;;;;;;;;;;;27.10;82.90;;;;;;5054868;28;19956;-69
2022/09/02 14:12:28;;;;;;;;;;;26.70;84.10;;;;;;5060362;28;19987;-69
2022/09/02 14:14:55;;;;;;;;;;;26.80;85.10;;;;;;5056497;28;19985;-70
2022/09/02 14:17:23;;;;;;;;;;;26.70;84.20;;;;;;5056891;28;19996;-70
2022/09/02 14:19:50;;;;;;;;;;;26.60;83.70;;;;;;5065188;28;19979;-71
2022/09/02 14:22:25;;;;;;;;;;;26.60;85.80;;;;;;5046031;28;19968;-71
2022/09/02 14:24:52;;;;;;;;;;;26.70;84.10;;;;;;5046410;28;19928;-69
2022/09/02 14:27:20;;;;;;;;;;;26.40;83.90;;;;;;5065722;28;20258;-69
2022/09/02 14:29:51;;;;;;;;;;;26.40;85.40;;;;;;5061274;28;19956;-71
2022/09/02 14:32:21;;;;;;;;;;;26.60;84.40;;;;;;5066187;28;19928;-71
2022/09/02 14:34:59;;;;;;;;;;;26.80;84.20;;;;;;5064891;28;19920;-71
2022/09/02 14:37:27;;;;;;;;;;;27.00;82.70;;;;;;5065743;28;20089;-71
2022/09/02 14:40:03;;;;;;;;;;;26.80;84.20;;;;;;5065597;28;19992;-70
2022/09/02 14:42:30;;;;;;;;;;;26.70;83.30;;;;;;5058190;28;19993;-75
2022/09/02 14:44:58;;;;;;;;;;;26.70;81.30;;;;;;5049849;28;19983;-71
2022/09/02 14:47:26;;;;;;;;;;;26.50;80.90;;;;;;5050855;28;20246;-71